Time;durP1;ratioP1;P1;durP2;ratioP2;P2;SDS_P1;SDS_P2;PMS_P1;PMS_P2;Temp;Humidity;BMP_temperature;BMP_pressure;BME280_temperature;BME280_humidity;BME280_pressure;Samples;Min_cycle;Max_cycle;Signal;HPM_P1;HPM_P2
2022/04/17 00:01:47;;;;;;;;;;;;;;;4.13;78.17;100826.66;6278492;22;19911;-82
2022/04/17 00:04:14;;;;;;;;;;;;;;;4.13;78.39;100824.06;6305279;22;19917;-81
2022/04/17 00:06:40;;;;;;;;;;;;;;;4.16;78.39;100831.03;6306546;22;19918;-82
2022/04/17 00:09:05;;;;;;;;;;;;;;;4.14;78.43;100823.16;6279211;22;19914;-81
2022/04/17 00:11:32;;;;;;;;;;;;;;;4.16;78.57;100821.44;6306294;22;19994;-81
2022/04/17 00:13:59;;;;;;;;;;;;;;;4.18;78.64;100822.28;6306682;22;20315;-81
2022/04/17 00:16:24;;;;;;;;;;;;;;;4.18;78.30;100824.91;6306457;22;19910;-80
2022/04/17 00:18:49;;;;;;;;;;;;;;;4.21;77.93;100820.53;6277984;22;20005;-81
2022/04/17 00:21:15;;;;;;;;;;;;;;;4.18;77.38;100813.56;6306065;22;19915;-81
2022/04/17 00:23:41;;;;;;;;;;;;;;;4.18;77.13;100817.03;6279266;22;19915;-80
2022/04/17 00:26:06;;;;;;;;;;;;;;;4.22;76.92;100803.94;6306783;22;19981;-81
2022/04/17 00:28:31;;;;;;;;;;;;;;;4.19;76.52;100805.66;6306534;22;19925;-80
2022/04/17 00:30:57;;;;;;;;;;;;;;;4.24;76.46;100802.16;6307104;22;19946;-81
2022/04/17 00:33:22;;;;;;;;;;;;;;;4.22;76.20;100803.94;6305949;22;19939;-82
2022/04/17 00:35:47;;;;;;;;;;;;;;;4.24;75.99;100800.41;6305347;22;19919;-80
2022/04/17 00:38:13;;;;;;;;;;;;;;;4.24;75.72;100799.53;6306580;22;19911;-81
2022/04/17 00:40:38;;;;;;;;;;;;;;;4.23;75.75;100800.41;6306959;22;19915;-79
2022/04/17 00:43:22;;;;;;;;;;;;;;;4.26;75.60;100795.16;6305916;22;19926;-80
2022/04/17 00:45:47;;;;;;;;;;;;;;;4.43;77.59;100796.00;6306884;22;19910;-80
2022/04/17 00:48:12;;;;;;;;;;;;;;;4.83;83.68;100790.66;6277987;22;19918;-80
2022/04/17 00:50:37;;;;;;;;;;;;;;;5.07;88.93;100791.47;6294517;22;19968;-81
2022/04/17 00:53:03;;;;;;;;;;;;;;;5.32;93.12;100791.34;6295821;22;19986;-80
2022/04/17 00:55:28;;;;;;;;;;;;;;;5.28;94.72;100788.75;6306755;22;20284;-82
2022/04/17 03:26:19;;;;;;;;;;;;;;;6.69;100.00;100703.38;6333483;22;19971;-81
2022/04/17 03:28:44;;;;;;;;;;;;;;;6.68;100.00;100697.22;6338905;22;19922;-81
2022/04/17 03:31:10;;;;;;;;;;;;;;;6.71;100.00;100696.31;6338722;22;20258;-83
2022/04/17 03:33:35;;;;;;;;;;;;;;;6.71;100.00;100696.31;6336695;22;19910;-81
2022/04/17 03:36:00;;;;;;;;;;;;;;;6.72;100.00;100691.03;6338759;22;19914;-82
2022/04/17 03:38:25;;;;;;;;;;;;;;;6.75;100.00;100694.50;6337230;22;19985;-85
2022/04/17 03:40:51;;;;;;;;;;;;;;;6.78;100.00;100691.84;6335806;22;19918;-81
2022/04/17 03:43:16;;;;;;;;;;;;;;;6.78;100.00;100691.84;6338656;22;19950;-82
2022/04/17 03:45:41;;;;;;;;;;;;;;;6.78;100.00;100686.56;6338622;22;20330;-83
2022/04/17 03:48:07;;;;;;;;;;;;;;;6.81;100.00;100686.53;6338745;22;19911;-82
2022/04/17 03:50:32;;;;;;;;;;;;;;;6.82;100.00;100697.06;6338743;22;19915;-81
2022/04/17 03:52:57;;;;;;;;;;;;;;;6.84;100.00;100699.66;6337054;22;19911;-83
2022/04/17 03:55:23;;;;;;;;;;;;;;;6.85;100.00;100701.41;6337166;22;19910;-81
2022/04/17 03:57:49;;;;;;;;;;;;;;;6.00;100.00;100697.09;6338655;22;19946;-82
2022/04/17 04:00:15;;;;;;;;;;;;;;;5.45;100.00;100695.75;6338338;22;19968;-82
2022/04/17 04:02:40;;;;;;;;;;;;;;;5.26;100.00;100689.75;6337054;22;19914;-81
2022/04/17 04:05:08;;;;;;;;;;;;;;;5.12;100.00;100694.22;6338659;22;19918;-81
2022/04/17 04:07:33;;;;;;;;;;;;;;;5.02;100.00;100703.91;6338706;22;19914;-81
2022/04/17 04:09:58;;;;;;;;;;;;;;;4.96;100.00;100703.94;6336907;22;19910;-81
2022/04/17 04:12:23;;;;;;;;;;;;;;;5.05;100.00;100701.28;6338530;22;19997;-81
2022/04/17 04:14:49;;;;;;;;;;;;;;;5.22;100.00;100686.28;6338331;22;19911;-81
2022/04/17 04:17:14;;;;;;;;;;;;;;;5.13;100.00;100696.84;6336779;22;19918;-81
2022/04/17 04:19:40;;;;;;;;;;;;;;;5.02;100.00;100688.16;6329838;22;19917;-81
2022/04/17 04:22:05;;;;;;;;;;;;;;;4.88;100.00;100690.84;6336793;22;19981;-82
2022/04/17 04:24:31;;;;;;;;;;;;;;;4.95;100.00;100689.09;6335217;22;19910;-81
2022/04/17 04:29:40;;;;;;;;;;;;;;;4.85;100.00;100689.13;6338745;22;19999;-83
2022/04/17 04:32:06;;;;;;;;;;;;;;;4.71;100.00;100686.56;6337091;22;19915;-82
2022/04/17 04:34:31;;;;;;;;;;;;;;;4.57;100.00;100684.88;6336520;22;19910;-82
2022/04/17 04:36:57;;;;;;;;;;;;;;;4.61;100.00;100687.50;6338168;22;19946;-81
2022/04/17 04:39:22;;;;;;;;;;;;;;;4.58;100.00;100681.38;6336595;22;19918;-82
2022/04/17 04:41:47;;;;;;;;;;;;;;;4.52;100.00;100677.88;6338266;22;19942;-81
2022/04/17 04:44:13;;;;;;;;;;;;;;;4.48;100.00;100685.78;6338352;22;19911;-81
2022/04/17 04:46:38;;;;;;;;;;;;;;;4.45;100.00;100681.44;6338011;22;19921;-82
2022/04/17 04:51:48;;;;;;;;;;;;;;;4.34;100.00;100694.59;6338210;22;19964;-81
2022/04/17 04:54:13;;;;;;;;;;;;;;;4.35;100.00;100692.81;6336942;22;19918;-82
2022/04/17 04:56:39;;;;;;;;;;;;;;;4.30;100.00;100695.44;6338179;22;20256;-82
2022/04/17 04:59:04;;;;;;;;;;;;;;;4.27;100.00;100703.34;6338278;22;20280;-82
2022/04/17 05:01:30;;;;;;;;;;;;;;;4.20;100.00;100693.75;6338536;22;19907;-82
2022/04/17 05:03:55;;;;;;;;;;;;;;;4.23;100.00;100695.47;6338129;22;19934;-82
2022/04/17 12:46:33;;;;;;;;;;;;;;;4.32;79.48;100317.63;6294122;22;19964;-80
2022/04/17 12:49:11;;;;;;;;;;;;;;;4.36;78.90;100306.22;6306864;22;20300;-82
2022/04/17 12:51:38;;;;;;;;;;;;;;;4.52;79.50;100305.19;6331549;22;19915;-80
2022/04/17 12:54:03;;;;;;;;;;;;;;;4.65;80.90;100302.44;6305321;22;20290;-81
2022/04/17 12:56:28;;;;;;;;;;;;;;;4.69;82.34;100293.63;6305448;22;19918;-80
2022/04/17 12:58:55;;;;;;;;;;;;;;;4.71;83.92;100297.13;6305483;22;19911;-81
2022/04/17 13:01:24;;;;;;;;;;;;;;;4.71;84.87;100291.88;6306857;22;20319;-80
2022/04/17 13:03:50;;;;;;;;;;;;;;;4.69;85.09;100285.75;6305362;22;19997;-80
2022/04/17 13:06:19;;;;;;;;;;;;;;;4.61;85.91;100291.13;6307146;22;20280;-81
2022/04/17 13:09:03;;;;;;;;;;;;;;;4.60;86.21;100289.38;6306954;22;20342;-81
2022/04/17 13:11:30;;;;;;;;;;;;;;;4.39;86.78;100281.69;6307127;22;19911;-80
2022/04/17 13:13:59;;;;;;;;;;;;;;;4.39;87.60;100276.44;6305195;22;19922;-80
2022/04/17 13:16:24;;;;;;;;;;;;;;;4.46;89.35;100283.41;6331208;22;19915;-80
2022/04/17 13:18:52;;;;;;;;;;;;;;;4.60;91.52;100263.13;6306844;22;19934;-80
2022/04/17 13:21:18;;;;;;;;;;;;;;;4.78;94.76;100267.28;6306526;22;19919;-81
2022/04/17 13:23:45;;;;;;;;;;;;;;;5.02;97.83;100257.38;6306746;22;19915;-81
2022/04/17 13:26:12;;;;;;;;;;;;;;;5.19;100.00;100251.94;6306624;22;19952;-80
2022/04/17 13:28:37;;;;;;;;;;;;;;;5.34;100.00;100259.56;6303674;22;20262;-80
2022/04/17 13:31:02;;;;;;;;;;;;;;;5.43;100.00;100242.81;6306118;22;19911;-80
2022/04/17 13:33:28;;;;;;;;;;;;;;;5.49;100.00;100244.47;6306518;22;19964;-81
2022/04/17 13:35:53;;;;;;;;;;;;;;;5.57;100.00;100247.88;6305094;22;19919;-80
2022/04/17 13:38:18;;;;;;;;;;;;;;;5.69;100.00;100233.69;6306227;22;19990;-80
2022/04/17 13:40:43;;;;;;;;;;;;;;;5.72;100.00;100239.75;6306918;22;19911;-81
2022/04/17 13:43:09;;;;;;;;;;;;;;;5.75;100.00;100233.59;6306274;22;19911;-80
2022/04/17 13:45:34;;;;;;;;;;;;;;;5.79;100.00;100230.00;6305056;22;19926;-81
2022/04/17 13:47:59;;;;;;;;;;;;;;;5.79;100.00;100225.63;6304883;22;19977;-80
2022/04/17 13:50:25;;;;;;;;;;;;;;;5.82;100.00;100216.78;6306592;22;19915;-80
2022/04/17 13:52:51;;;;;;;;;;;;;;;5.88;100.00;100207.94;6306596;22;19943;-80
2022/04/17 13:55:18;;;;;;;;;;;;;;;5.90;100.00;100204.38;6306466;22;19993;-81
2022/04/17 13:57:45;;;;;;;;;;;;;;;5.96;100.00;100199.06;6306028;22;19911;-81
2022/04/17 14:00:11;;;;;;;;;;;;;;;5.98;100.00;100199.91;6304867;22;19953;-80
2022/04/17 14:02:37;;;;;;;;;;;;;;;6.07;100.00;100192.75;6306335;22;19926;-80
2022/04/17 14:05:03;;;;;;;;;;;;;;;6.10;100.00;100190.06;6306463;22;19911;-81
2022/04/17 14:07:28;;;;;;;;;;;;;;;6.13;100.00;100193.50;6306311;22;19919;-80
2022/04/17 14:09:54;;;;;;;;;;;;;;;6.17;100.00;100187.31;6306424;22;20340;-80
2022/04/17 14:12:19;;;;;;;;;;;;;;;6.21;100.00;100181.94;6306421;22;19914;-81
2022/04/17 14:14:44;;;;;;;;;;;;;;;6.20;100.00;100170.56;6303310;22;19911;-80
2022/04/17 14:17:10;;;;;;;;;;;;;;;6.25;100.00;100171.34;6306281;22;19914;-80
2022/04/17 14:19:36;;;;;;;;;;;;;;;6.29;100.00;100174.81;6308546;22;19914;-80
2022/04/17 14:22:02;;;;;;;;;;;;;;;6.28;100.00;100165.16;6308447;22;20413;-81
2022/04/17 14:24:27;;;;;;;;;;;;;;;6.27;100.00;100166.94;6308473;22;19946;-81
2022/04/17 14:26:52;;;;;;;;;;;;;;;6.34;100.00;100165.91;6308589;22;19960;-80
2022/04/17 14:29:18;;;;;;;;;;;;;;;5.62;100.00;100165.41;6306884;22;19914;-80
2022/04/17 14:31:43;;;;;;;;;;;;;;;5.16;100.00;100160.88;6308551;22;20333;-80
2022/04/17 14:34:08;;;;;;;;;;;;;;;4.95;100.00;100155.94;6306705;22;19922;-80
2022/04/17 14:36:34;;;;;;;;;;;;;;;4.79;100.00;100156.13;6308396;22;19939;-81
2022/04/17 14:38:59;;;;;;;;;;;;;;;4.69;100.00;100151.88;6308711;22;19938;-79
2022/04/17 14:41:25;;;;;;;;;;;;;;;4.55;100.00;100147.69;6306669;22;20307;-80
2022/04/17 14:43:50;;;;;;;;;;;;;;;4.53;100.00;100152.09;6306771;22;19976;-80
2022/04/17 14:46:16;;;;;;;;;;;;;;;4.46;99.33;100147.78;6307958;22;19915;-80
2022/04/17 14:48:41;;;;;;;;;;;;;;;4.48;98.19;100140.78;6308327;22;20330;-80
2022/04/17 14:51:06;;;;;;;;;;;;;;;4.42;97.29;100129.47;6308187;22;19932;-81
2022/04/17 14:53:32;;;;;;;;;;;;;;;4.36;96.47;100136.53;6308228;22;20392;-80
2022/04/17 14:55:58;;;;;;;;;;;;;;;4.31;95.79;100127.88;6308219;22;20258;-81
2022/04/17 14:58:24;;;;;;;;;;;;;;;4.28;95.18;100132.28;6307838;22;20396;-80
2022/04/17 15:00:49;;;;;;;;;;;;;;;4.29;94.96;100128.75;6306721;22;19911;-81
2022/04/17 15:03:15;;;;;;;;;;;;;;;4.23;94.13;100115.72;6308009;22;20315;-80
2022/04/17 15:05:40;;;;;;;;;;;;;;;4.18;93.43;100110.53;6308092;22;19915;-80
2022/04/17 15:08:05;;;;;;;;;;;;;;;4.19;92.88;100107.00;6307985;22;20384;-80
2022/04/17 15:10:31;;;;;;;;;;;;;;;4.21;92.56;100114.88;6307833;22;19921;-80
2022/04/17 15:12:56;;;;;;;;;;;;;;;4.21;92.02;100109.63;6306164;22;19970;-80
2022/04/17 15:15:22;;;;;;;;;;;;;;;4.13;91.36;100104.47;6306413;22;19915;-80
2022/04/17 15:17:48;;;;;;;;;;;;;;;4.19;90.79;100107.00;6308210;22;19914;-80
2022/04/17 15:20:14;;;;;;;;;;;;;;;4.15;90.17;100103.56;6307843;22;19956;-80
2022/04/17 15:22:39;;;;;;;;;;;;;;;4.07;89.64;100097.53;6306197;22;19907;-80
2022/04/17 15:25:06;;;;;;;;;;;;;;;4.09;89.67;100106.25;6307806;22;19915;-80
2022/04/17 15:27:32;;;;;;;;;;;;;;;4.06;89.43;100089.69;6307685;22;19912;-80
2022/04/17 15:29:57;;;;;;;;;;;;;;;3.97;89.09;100086.28;6303999;22;20237;-80
2022/04/17 15:32:23;;;;;;;;;;;;;;;4.00;89.27;100093.25;6306188;22;19986;-80
2022/04/17 15:34:48;;;;;;;;;;;;;;;3.97;89.20;100094.16;6307748;22;19913;-80
2022/04/17 15:37:13;;;;;;;;;;;;;;;3.93;88.81;100092.44;6306649;22;19989;-80
2022/04/17 15:39:38;;;;;;;;;;;;;;;3.94;88.98;100091.56;6307599;22;19911;-80
2022/04/17 15:42:04;;;;;;;;;;;;;;;3.90;89.04;100089.00;6307563;22;19918;-80
2022/04/17 15:49:58;;;;;;;;;;;;;;;3.81;88.82;100087.31;6307680;22;19941;-80
2022/04/17 15:52:24;;;;;;;;;;;;;;;3.81;89.05;100084.69;6307477;22;19986;-80
2022/04/17 15:54:52;;;;;;;;;;;;;;;3.83;88.87;100080.34;6307510;22;19911;-81
2022/04/17 15:57:19;;;;;;;;;;;;;;;3.80;88.55;100083.84;6305845;22;19911;-80
2022/04/17 15:59:45;;;;;;;;;;;;;;;3.83;88.56;100082.97;6305961;22;19915;-81
2022/04/17 16:02:10;;;;;;;;;;;;;;;3.76;88.35;100084.75;6307889;22;19994;-80
2022/04/17 16:04:35;;;;;;;;;;;;;;;3.69;88.61;100077.84;6307416;22;20349;-80
2022/04/17 16:07:01;;;;;;;;;;;;;;;3.72;88.58;100080.44;6307405;22;19985;-80
2022/04/17 16:09:26;;;;;;;;;;;;;;;3.73;88.56;100082.16;6307244;22;19918;-80
2022/04/17 16:11:52;;;;;;;;;;;;;;;3.74;88.64;100077.81;6305738;22;20314;-80
2022/04/17 16:14:17;;;;;;;;;;;;;;;3.80;88.32;100083.84;6306167;22;19992;-80
2022/04/17 16:16:42;;;;;;;;;;;;;;;3.72;88.13;100080.44;6307704;22;19938;-81
2022/04/17 16:19:13;;;;;;;;;;;;;;;3.71;88.17;100077.84;6307638;22;19911;-80
2022/04/17 16:21:39;;;;;;;;;;;;;;;3.65;88.06;100073.50;6305392;22;19968;-81
2022/04/17 16:24:04;;;;;;;;;;;;;;;3.67;88.12;100071.75;6306148;22;19986;-80
2022/04/17 16:26:29;;;;;;;;;;;;;;;3.57;88.10;100077.97;6305614;22;20242;-80
2022/04/17 16:28:55;;;;;;;;;;;;;;;3.58;88.22;100067.47;6305768;22;20178;-80
2022/04/17 16:31:20;;;;;;;;;;;;;;;3.62;88.49;100073.53;6307116;22;19976;-80
2022/04/17 16:33:45;;;;;;;;;;;;;;;3.57;88.04;100067.47;6307430;22;19911;-80
2022/04/17 16:36:10;;;;;;;;;;;;;;;3.57;88.44;100072.72;6306971;22;19915;-80
2022/04/17 16:38:37;;;;;;;;;;;;;;;3.55;88.38;100066.63;6306994;22;19941;-80
2022/04/17 16:41:04;;;;;;;;;;;;;;;3.55;88.38;100069.25;6307009;22;20420;-80
2022/04/17 16:43:29;;;;;;;;;;;;;;;3.53;88.39;100069.25;6305416;22;19915;-80
2022/04/17 16:45:54;;;;;;;;;;;;;;;3.58;88.32;100058.75;6305455;22;20396;-80
2022/04/17 16:48:20;;;;;;;;;;;;;;;3.61;88.22;100064.81;6306935;22;19973;-80
2022/04/17 16:50:45;;;;;;;;;;;;;;;3.64;88.01;100059.53;6306884;22;19911;-80
2022/04/17 16:53:10;;;;;;;;;;;;;;;3.58;87.66;100069.22;6307007;22;19911;-80
2022/04/17 16:55:35;;;;;;;;;;;;;;;3.49;87.63;100056.22;6306926;22;19969;-81
2022/04/17 17:00:44;;;;;;;;;;;;;;;3.50;87.73;100057.94;6305396;22;19963;-81
2022/04/17 17:03:10;;;;;;;;;;;;;;;3.56;87.81;100056.13;6305238;22;19914;-80
2022/04/17 17:05:36;;;;;;;;;;;;;;;3.64;87.26;100050.81;6305061;22;20405;-80
2022/04/17 17:08:01;;;;;;;;;;;;;;;3.62;87.31;100045.59;6306181;22;19943;-80
2022/04/17 17:10:27;;;;;;;;;;;;;;;3.59;87.06;100048.25;6331083;22;19915;-81
2022/04/17 17:12:52;;;;;;;;;;;;;;;3.54;86.79;100043.91;6306679;22;19973;-80
2022/04/17 17:15:17;;;;;;;;;;;;;;;3.46;86.85;100036.13;6305178;22;19921;-81
2022/04/17 17:17:43;;;;;;;;;;;;;;;3.45;87.09;100034.41;6306607;22;19922;-81
2022/04/17 17:20:08;;;;;;;;;;;;;;;3.44;87.28;100036.16;6305080;22;20242;-80
2022/04/17 17:22:33;;;;;;;;;;;;;;;3.49;87.08;100040.47;6306894;22;20322;-80
2022/04/17 17:24:59;;;;;;;;;;;;;;;3.50;86.94;100037.84;6331378;22;20234;-81
2022/04/17 17:27:24;;;;;;;;;;;;;;;3.49;86.91;100035.25;6307068;22;19915;-80
2022/04/17 17:29:50;;;;;;;;;;;;;;;3.56;86.73;100039.56;6305177;22;19911;-80
2022/04/17 17:32:15;;;;;;;;;;;;;;;3.48;86.37;100034.38;6306728;22;19981;-80
2022/04/17 17:34:41;;;;;;;;;;;;;;;3.48;86.57;100038.75;6306344;22;20029;-80
2022/04/17 17:37:06;;;;;;;;;;;;;;;3.51;86.25;100041.34;6306536;22;19915;-80
2022/04/17 17:39:33;;;;;;;;;;;;;;;3.47;86.27;100032.63;6306306;22;19940;-80
2022/04/17 17:41:58;;;;;;;;;;;;;;;3.49;86.05;100032.63;6304840;22;19919;-81
2022/04/17 17:44:25;;;;;;;;;;;;;;;3.44;85.76;100038.75;6304801;22;19911;-81
2022/04/17 17:46:51;;;;;;;;;;;;;;;3.42;85.77;100037.06;6306365;22;19937;-81
2022/04/17 17:49:16;;;;;;;;;;;;;;;3.43;85.58;100028.31;6306268;22;19915;-80
2022/04/17 17:51:42;;;;;;;;;;;;;;;3.46;85.57;100044.00;6304555;22;20311;-80
2022/04/17 17:54:07;;;;;;;;;;;;;;;3.48;85.27;100039.63;6306689;22;20032;-80
2022/04/17 17:56:37;;;;;;;;;;;;;;;3.44;85.17;100038.75;6304994;22;19952;-80
2022/04/17 17:59:02;;;;;;;;;;;;;;;3.43;84.88;100042.28;6305154;22;19943;-80
2022/04/17 18:01:28;;;;;;;;;;;;;;;3.47;84.62;100045.75;6306299;22;19911;-81
2022/04/17 18:03:53;;;;;;;;;;;;;;;3.43;84.26;100042.28;6306030;22;20482;-80
2022/04/17 18:06:18;;;;;;;;;;;;;;;3.40;84.09;100037.06;6304444;22;19938;-80
2022/04/17 18:14:31;;;;;;;;;;;;;;;3.33;84.16;100035.38;6304119;22;19994;-80
2022/04/17 18:16:57;;;;;;;;;;;;;;;3.33;84.08;100045.84;6306254;22;20372;-80
2022/04/17 18:19:22;;;;;;;;;;;;;;;3.35;83.98;100048.47;6305832;22;19968;-80
2022/04/17 18:21:48;;;;;;;;;;;;;;;3.30;83.92;100050.25;6305209;22;19997;-80
2022/04/17 18:24:13;;;;;;;;;;;;;;;3.29;83.93;100057.25;6306083;22;19961;-80
2022/04/17 18:26:39;;;;;;;;;;;;;;;3.30;83.90;100053.75;6305615;22;19922;-80
2022/04/17 18:29:04;;;;;;;;;;;;;;;3.31;83.88;100052.00;6304436;22;19921;-80
2022/04/17 18:31:29;;;;;;;;;;;;;;;3.26;83.84;100055.53;6305138;22;19925;-80
2022/04/17 18:33:54;;;;;;;;;;;;;;;3.26;83.98;100045.06;6305200;22;19911;-80
2022/04/17 18:36:20;;;;;;;;;;;;;;;3.32;84.00;100054.63;6305632;22;19953;-80
2022/04/17 18:38:46;;;;;;;;;;;;;;;3.32;83.71;100053.72;6304684;22;19915;-80
2022/04/17 18:41:12;;;;;;;;;;;;;;;3.29;83.74;100057.25;6306056;22;19936;-80
2022/04/17 18:43:37;;;;;;;;;;;;;;;3.23;83.56;100054.69;6304972;22;19965;-81
2022/04/17 18:46:02;;;;;;;;;;;;;;;3.27;83.55;100057.28;6303340;22;19915;-80
2022/04/17 18:48:27;;;;;;;;;;;;;;;3.30;83.24;100058.97;6306041;22;19919;-80
2022/04/17 18:50:53;;;;;;;;;;;;;;;3.32;83.13;100056.34;6305985;22;20280;-80
2022/04/17 18:53:18;;;;;;;;;;;;;;;3.26;82.87;100055.53;6305008;22;19922;-82
2022/04/17 18:55:43;;;;;;;;;;;;;;;3.28;82.80;100060.75;6303003;22;19921;-81
2022/04/17 18:58:11;;;;;;;;;;;;;;;3.27;82.49;100062.50;6305996;22;19958;-80
2022/04/17 19:00:36;;;;;;;;;;;;;;;3.22;82.38;100063.41;6304101;22;19911;-80
2022/04/17 19:03:01;;;;;;;;;;;;;;;3.23;82.36;100066.03;6305475;22;20043;-81
2022/04/17 19:05:27;;;;;;;;;;;;;;;3.25;82.46;100061.63;6307504;22;19915;-80
2022/04/17 19:07:53;;;;;;;;;;;;;;;3.24;82.46;100061.69;6305849;22;19915;-81
2022/04/17 19:10:22;;;;;;;;;;;;;;;3.23;82.36;100063.41;6307988;22;20016;-80
2022/04/17 19:15:31;;;;;;;;;;;;;;;3.24;82.30;100064.31;6305448;22;19988;-80
2022/04/17 19:17:56;;;;;;;;;;;;;;;3.24;82.24;100056.44;6307052;22;19915;-80
2022/04/17 19:20:22;;;;;;;;;;;;;;;3.24;82.20;100064.31;6308235;22;19918;-81
2022/04/17 19:22:47;;;;;;;;;;;;;;;4.68;82.85;100058.28;6306499;22;19956;-81
2022/04/17 19:25:13;;;;;;;;;;;;;;;5.91;76.37;100055.34;6305013;22;19976;-83
2022/04/17 19:27:39;;;;;;;;;;;;;;;5.34;77.00;100056.38;6306083;22;19921;-83
2022/04/17 19:30:05;;;;;;;;;;;;;;;4.38;79.70;100060.44;6330391;22;19921;-83
2022/04/17 19:35:34;;;;;;;;;;;;;;;3.94;82.65;100062.72;6243058;23;19911;-82
2022/04/17 19:37:59;;;;;;;;;;;;;;;3.90;82.82;100060.16;6241979;23;20258;-82
2022/04/17 19:40:25;;;;;;;;;;;;;;;3.85;83.09;100059.34;6255097;22;19918;-83
2022/04/17 19:42:50;;;;;;;;;;;;;;;3.82;82.94;100060.22;6305900;22;19911;-82
2022/04/17 19:45:16;;;;;;;;;;;;;;;3.75;83.17;100061.16;6304147;22;19915;-82
2022/04/17 19:47:43;;;;;;;;;;;;;;;3.75;83.31;100058.56;6305224;22;19919;-82
2022/04/17 19:50:08;;;;;;;;;;;;;;;3.69;83.25;100069.13;6306475;22;19918;-82
2022/04/17 19:52:34;;;;;;;;;;;;;;;3.70;83.28;100061.25;6305630;22;20235;-82
2022/04/17 19:54:59;;;;;;;;;;;;;;;3.69;83.49;100066.50;6304814;22;19934;-82
2022/04/17 19:57:24;;;;;;;;;;;;;;;3.68;83.33;100072.63;6299292;22;20650;-82
2022/04/17 19:59:50;;;;;;;;;;;;;;;3.67;83.22;100065.63;6300872;22;19918;-82
2022/04/17 20:02:15;;;;;;;;;;;;;;;3.66;83.18;100069.16;6307133;22;19915;-82
2022/04/17 20:04:40;;;;;;;;;;;;;;;3.65;83.13;100063.03;6305590;22;19911;-82
2022/04/17 20:07:06;;;;;;;;;;;;;;;3.64;83.02;100061.31;6303054;22;19922;-81
2022/04/17 20:09:31;;;;;;;;;;;;;;;3.63;83.05;100065.66;6306588;22;19918;-81
2022/04/17 20:11:56;;;;;;;;;;;;;;;3.65;82.81;100068.25;6330656;22;19930;-81
2022/04/17 20:14:22;;;;;;;;;;;;;;;3.67;82.62;100063.91;6305654;22;19915;-82
2022/04/17 20:16:47;;;;;;;;;;;;;;;3.68;82.68;100062.13;6306500;22;19918;-81
2022/04/17 20:19:15;;;;;;;;;;;;;;;3.66;82.47;100064.78;6307078;22;20208;-82
2022/04/17 20:21:41;;;;;;;;;;;;;;;3.64;82.39;100063.94;6304090;22;20019;-83
2022/04/17 20:24:06;;;;;;;;;;;;;;;3.64;82.23;100058.69;6305380;22;20305;-84
2022/04/17 20:26:31;;;;;;;;;;;;;;;3.68;81.90;100049.88;6304977;22;19950;-84
2022/04/17 20:28:57;;;;;;;;;;;;;;;3.62;81.78;100052.56;6304947;22;20539;-83
2022/04/17 20:31:22;;;;;;;;;;;;;;;3.65;81.83;100052.53;6306054;22;20572;-84
2022/04/17 20:33:47;;;;;;;;;;;;;;;3.65;81.58;100052.53;6303747;22;19961;-83
2022/04/17 20:36:13;;;;;;;;;;;;;;;3.66;81.53;100043.81;6306910;22;20231;-83
2022/04/17 20:38:38;;;;;;;;;;;;;;;3.66;81.41;100049.03;6304097;22;20242;-82
2022/04/17 20:41:03;;;;;;;;;;;;;;;3.66;81.35;100051.66;6330827;22;20246;-84
2022/04/17 20:51:41;;;;;;;;;;;;;;;3.63;80.43;100038.59;6306752;22;19918;-81
2022/04/17 20:54:06;;;;;;;;;;;;;;;3.60;80.43;100043.88;6304531;22;20352;-82
2022/04/17 20:56:31;;;;;;;;;;;;;;;3.62;80.27;100039.47;6303904;22;20311;-83
2022/04/17 20:58:57;;;;;;;;;;;;;;;3.59;80.09;100036.88;6304729;22;19926;-82
2022/04/17 21:01:22;;;;;;;;;;;;;;;3.56;80.12;100034.31;6305506;22;19910;-82
2022/04/17 21:03:48;;;;;;;;;;;;;;;3.56;79.99;100036.94;6304625;22;19926;-84
2022/04/17 21:06:13;;;;;;;;;;;;;;;3.56;79.84;100032.56;6306379;22;20362;-83
2022/04/17 21:08:38;;;;;;;;;;;;;;;3.57;79.73;100031.66;6304396;22;19948;-83
2022/04/17 21:11:04;;;;;;;;;;;;;;;3.56;79.67;100029.94;6305524;22;19986;-83
2022/04/17 21:13:29;;;;;;;;;;;;;;;3.58;79.61;100027.28;6304389;22;20515;-83
2022/04/17 21:15:54;;;;;;;;;;;;;;;3.58;79.47;100025.53;6327834;22;19911;-83
2022/04/17 21:18:19;;;;;;;;;;;;;;;3.56;79.37;100026.44;6305523;22;19923;-82
2022/04/17 21:20:45;;;;;;;;;;;;;;;3.57;79.42;100022.94;6302644;22;19922;-83
2022/04/17 21:23:12;;;;;;;;;;;;;;;3.56;79.22;100016.84;6305870;22;19938;-83
2022/04/17 21:25:37;;;;;;;;;;;;;;;3.58;79.03;100014.19;6304101;22;19999;-83
2022/04/17 21:28:02;;;;;;;;;;;;;;;3.56;78.77;100024.69;6306069;22;20283;-82
2022/04/17 21:30:28;;;;;;;;;;;;;;;3.58;78.56;100020.28;6302899;22;19908;-84
2022/04/17 21:32:53;;;;;;;;;;;;;;;3.58;78.61;100019.44;6306196;22;19949;-83
2022/04/17 21:35:18;;;;;;;;;;;;;;;3.54;78.39;100017.72;6294247;22;19918;-83
2022/04/17 21:37:43;;;;;;;;;;;;;;;3.56;78.51;100016.84;6328791;22;19946;-83
2022/04/17 21:40:09;;;;;;;;;;;;;;;3.60;78.51;100020.28;6305837;22;19930;-83
2022/04/17 21:42:34;;;;;;;;;;;;;;;3.59;78.44;100018.53;6306059;22;20402;-83
2022/04/17 21:45:00;;;;;;;;;;;;;;;3.60;78.45;100017.66;6302100;22;20282;-83
2022/04/17 21:47:28;;;;;;;;;;;;;;;3.59;78.43;100016.81;6303459;22;20337;-82
2022/04/17 21:49:53;;;;;;;;;;;;;;;3.60;78.37;100013.28;6301258;22;19915;-83
2022/04/17 21:52:19;;;;;;;;;;;;;;;3.60;78.22;100012.41;6306432;22;20354;-83
2022/04/17 21:54:44;;;;;;;;;;;;;;;3.58;78.03;100008.97;6304573;22;19911;-83
2022/04/17 21:57:10;;;;;;;;;;;;;;;3.60;78.10;100012.41;6329874;22;19942;-83
2022/04/17 22:05:03;;;;;;;;;;;;;;;3.64;79.16;100003.66;6305684;22;19922;-83
2022/04/17 22:07:29;;;;;;;;;;;;;;;3.67;79.23;100013.22;6305857;22;20305;-83
2022/04/17 22:09:54;;;;;;;;;;;;;;;3.65;79.28;100013.22;6303038;22;20318;-83
2022/04/17 22:12:19;;;;;;;;;;;;;;;3.67;79.26;100016.72;6304760;22;19911;-83
2022/04/17 22:14:44;;;;;;;;;;;;;;;3.67;78.83;100005.34;6302562;22;19918;-84
2022/04/17 22:17:10;;;;;;;;;;;;;;;3.65;78.06;100010.59;6304074;22;19918;-84
2022/04/17 22:19:35;;;;;;;;;;;;;;;3.64;77.38;100003.66;6330212;22;19915;-85
2022/04/17 22:22:00;;;;;;;;;;;;;;;3.66;76.78;100001.88;6305042;22;19911;-83
2022/04/17 22:24:26;;;;;;;;;;;;;;;3.66;76.42;100001.88;6304074;22;19944;-85
2022/04/17 22:26:57;;;;;;;;;;;;;;;3.66;76.02;99999.25;6306160;22;19938;-84
2022/04/17 22:29:22;;;;;;;;;;;;;;;3.65;75.66;99997.50;6304355;22;19957;-83
2022/04/17 22:31:47;;;;;;;;;;;;;;;3.62;75.52;99995.81;6305558;22;19915;-83
2022/04/17 22:34:13;;;;;;;;;;;;;;;3.66;75.51;99991.38;6305779;22;19915;-83
2022/04/17 22:36:38;;;;;;;;;;;;;;;3.68;75.70;99991.38;6306124;22;19953;-83
2022/04/17 22:39:03;;;;;;;;;;;;;;;3.71;76.23;99992.19;6304986;22;19922;-83
2022/04/17 22:41:29;;;;;;;;;;;;;;;3.72;76.21;99983.47;6332350;22;19930;-83
2022/04/17 22:43:54;;;;;;;;;;;;;;;3.69;75.79;99988.72;6305432;22;19915;-83
2022/04/17 22:46:19;;;;;;;;;;;;;;;3.69;75.51;99982.63;6305495;22;19914;-82
2022/04/17 22:48:45;;;;;;;;;;;;;;;3.68;75.13;99978.28;6330325;22;19915;-84
2022/04/17 22:51:10;;;;;;;;;;;;;;;3.69;75.01;99983.50;6304574;22;19915;-82
2022/04/17 22:53:35;;;;;;;;;;;;;;;3.72;74.78;99982.56;6307245;22;20337;-82
2022/04/17 22:56:01;;;;;;;;;;;;;;;3.73;74.76;99982.56;6307104;22;19921;-83
2022/04/17 22:58:27;;;;;;;;;;;;;;;3.73;74.49;99976.47;6307116;22;19919;-83
2022/04/17 23:01:10;;;;;;;;;;;;;;;3.73;74.22;99977.31;6306440;22;19986;-84
2022/04/17 23:03:36;;;;;;;;;;;;;;;3.74;74.15;99983.44;6330629;22;20026;-84
2022/04/17 23:06:01;;;;;;;;;;;;;;;3.78;74.34;99983.41;6306514;22;20280;-84
2022/04/17 23:08:27;;;;;;;;;;;;;;;3.79;74.03;99973.75;6331676;22;19925;-83
2022/04/17 23:10:52;;;;;;;;;;;;;;;3.78;73.79;99985.13;6305108;22;19915;-83
2022/04/17 23:13:18;;;;;;;;;;;;;;;3.81;73.57;99974.59;6306808;22;19914;-83
2022/04/17 23:15:43;;;;;;;;;;;;;;;3.82;73.49;99971.09;6305242;22;19918;-83
2022/04/17 23:18:08;;;;;;;;;;;;;;;3.81;73.28;99975.50;6305609;22;19918;-83
2022/04/17 23:20:33;;;;;;;;;;;;;;;3.81;73.25;99974.59;6307168;22;19917;-82
2022/04/17 23:22:58;;;;;;;;;;;;;;;3.82;73.08;99969.34;6306572;22;19911;-82
2022/04/17 23:25:24;;;;;;;;;;;;;;;3.88;73.15;99967.53;6331807;22;19911;-83